createdAt,value
2023-11-15T00:01:17.191Z,12.68
2023-11-15T00:03:44.807Z,11.25
2023-11-15T00:06:13.545Z,11.02
2023-11-15T00:08:41.543Z,10.95
2023-11-15T00:11:09.432Z,11.57
2023-11-15T00:13:37.103Z,13.50
2023-11-15T00:16:05.951Z,10.77
2023-11-15T00:18:33.607Z,11.77
2023-11-15T00:21:01.206Z,10.05
2023-11-15T00:23:28.875Z,9.65
2023-11-15T00:25:56.617Z,9.98
2023-11-15T00:28:24.146Z,10.38
2023-11-15T00:30:51.782Z,9.55
2023-11-15T00:33:19.486Z,10.00
2023-11-15T00:35:47.477Z,10.00
2023-11-15T00:38:16.313Z,10.75
2023-11-15T00:40:44.154Z,12.07
2023-11-15T00:43:11.820Z,12.10
2023-11-15T00:45:39.686Z,12.57
2023-11-15T00:48:07.438Z,12.18
2023-11-15T00:50:35.170Z,12.35
2023-11-15T00:53:04.977Z,14.13
2023-11-15T00:55:32.703Z,14.85
2023-11-15T00:58:00.854Z,11.63
2023-11-15T01:00:33.773Z,12.80
2023-11-15T01:03:02.773Z,11.40
2023-11-15T01:05:30.537Z,12.80
2023-11-15T01:08:01.582Z,10.57
2023-11-15T01:10:29.217Z,11.07
2023-11-15T01:12:56.950Z,11.52
2023-11-15T01:15:25.533Z,11.85
2023-11-15T01:17:53.206Z,10.68
2023-11-15T01:20:20.963Z,12.85
2023-11-15T01:22:48.702Z,12.32
2023-11-15T01:25:16.425Z,9.93
2023-11-15T01:27:44.063Z,14.27
2023-11-15T01:30:11.868Z,12.40
2023-11-15T01:32:39.745Z,13.45
2023-11-15T01:35:07.686Z,13.00
2023-11-15T01:37:35.271Z,12.00
2023-11-15T01:40:03.124Z,14.48
2023-11-15T01:42:32.079Z,12.98
2023-11-15T01:44:59.695Z,11.00
2023-11-15T01:47:27.576Z,12.55
2023-11-15T01:49:55.513Z,11.98
2023-11-15T01:52:23.181Z,12.55
2023-11-15T01:54:52.110Z,12.02
2023-11-15T01:57:20.020Z,12.88
2023-11-15T01:59:47.707Z,11.90
2023-11-15T02:02:16.205Z,14.02
2023-11-15T02:04:43.826Z,12.73
2023-11-15T02:07:11.404Z,13.90
2023-11-15T02:09:39.108Z,14.20
2023-11-15T02:12:07.289Z,13.50
2023-11-15T02:14:35.035Z,13.68
2023-11-15T02:17:03.234Z,14.55
2023-11-15T02:19:31.051Z,13.55
2023-11-15T02:21:58.479Z,13.02
2023-11-15T02:24:26.122Z,14.68
2023-11-15T02:26:54.002Z,12.63
2023-11-15T02:29:21.611Z,13.85
2023-11-15T02:31:49.298Z,13.98
2023-11-15T02:34:17.150Z,15.15
2023-11-15T02:36:44.917Z,13.10
2023-11-15T02:39:12.469Z,13.65
2023-11-15T02:41:40.081Z,14.30
2023-11-15T02:44:07.667Z,14.27
2023-11-15T02:46:35.270Z,16.00
2023-11-15T02:49:02.971Z,17.08
2023-11-15T02:51:30.826Z,14.02
2023-11-15T02:53:58.373Z,16.63
2023-11-15T02:56:26.341Z,15.88
2023-11-15T02:58:54.310Z,16.77
2023-11-15T03:01:22.544Z,16.40
2023-11-15T03:03:50.340Z,18.00
2023-11-15T03:06:18.080Z,17.25
2023-11-15T03:08:45.786Z,19.02
2023-11-15T03:11:14.921Z,19.58
2023-11-15T03:13:42.668Z,20.90
2023-11-15T03:16:10.349Z,21.33
2023-11-15T03:18:38.111Z,19.33
2023-11-15T03:21:05.958Z,16.05
2023-11-15T03:23:33.571Z,16.17
2023-11-15T03:26:01.265Z,16.60
2023-11-15T03:28:29.318Z,20.23
2023-11-15T03:30:56.973Z,23.52
2023-11-15T03:33:25.370Z,17.20
2023-11-15T03:35:53.167Z,17.60
2023-11-15T03:38:20.823Z,21.65
2023-11-15T03:40:49.099Z,18.02
2023-11-15T03:43:16.971Z,17.40
2023-11-15T03:45:44.636Z,17.83
2023-11-15T03:48:12.530Z,16.23
2023-11-15T03:50:40.204Z,15.98
2023-11-15T03:53:07.980Z,18.40
2023-11-15T03:55:36.072Z,16.77
2023-11-15T03:58:04.078Z,15.55
2023-11-15T04:00:32.112Z,16.73
2023-11-15T04:02:59.810Z,15.20
2023-11-15T04:05:29.556Z,14.63
2023-11-15T04:07:57.871Z,14.68
2023-11-15T04:10:26.181Z,14.70
2023-11-15T04:12:55.805Z,13.93
2023-11-15T04:15:26.059Z,13.48
2023-11-15T04:17:57.513Z,12.63
2023-11-15T04:20:25.174Z,11.05
2023-11-15T04:22:52.769Z,13.88
2023-11-15T04:25:20.528Z,13.52
2023-11-15T04:27:48.130Z,12.05
2023-11-15T04:30:17.211Z,12.05
2023-11-15T04:32:46.852Z,10.30
2023-11-15T04:35:14.604Z,12.80
2023-11-15T04:37:42.350Z,11.73
2023-11-15T04:40:11.500Z,14.60
2023-11-15T04:42:40.200Z,13.73
2023-11-15T04:45:08.217Z,17.20
2023-11-15T04:47:36.693Z,15.63
2023-11-15T04:50:05.649Z,14.07
2023-11-15T04:52:33.849Z,12.63
2023-11-15T04:55:01.532Z,13.20
2023-11-15T04:57:34.551Z,15.40
2023-11-15T05:00:02.133Z,12.95
2023-11-15T05:02:32.276Z,15.70
2023-11-15T05:05:00.533Z,16.23
2023-11-15T05:07:28.146Z,14.95
2023-11-15T05:09:56.409Z,16.73
2023-11-15T05:12:26.533Z,18.52
2023-11-15T05:14:54.397Z,20.67
2023-11-15T05:17:22.069Z,15.85
2023-11-15T05:19:49.701Z,16.10
2023-11-15T05:22:17.543Z,15.57
2023-11-15T05:24:45.164Z,17.98
2023-11-15T05:27:13.671Z,24.83
2023-11-15T05:29:41.762Z,17.67
2023-11-15T05:32:10.091Z,12.63
2023-11-15T05:34:37.706Z,15.43
2023-11-15T05:37:05.326Z,15.15
2023-11-15T05:39:33.014Z,12.93
2023-11-15T05:42:01.134Z,11.63
2023-11-15T05:44:30.158Z,10.15
2023-11-15T05:46:57.914Z,19.63
2023-11-15T05:49:25.516Z,14.75
2023-11-15T05:51:53.064Z,13.43
2023-11-15T05:54:20.809Z,11.27
2023-11-15T05:56:48.928Z,12.13
2023-11-15T05:59:16.790Z,13.18
2023-11-15T06:01:44.566Z,12.32
2023-11-15T06:04:12.268Z,19.45
2023-11-15T06:06:39.911Z,15.07
2023-11-15T06:09:07.585Z,16.83
2023-11-15T06:11:35.176Z,17.65
2023-11-15T06:14:02.849Z,15.32
2023-11-15T06:16:30.520Z,16.65
2023-11-15T06:18:59.295Z,15.32
2023-11-15T06:21:28.132Z,14.77
2023-11-15T06:23:56.721Z,17.13
2023-11-15T06:26:24.657Z,15.27
2023-11-15T06:28:52.880Z,16.85
2023-11-15T06:31:27.179Z,14.40
2023-11-15T06:33:55.003Z,17.52
2023-11-15T06:36:22.845Z,15.07
2023-11-15T06:38:50.850Z,13.85
2023-11-15T06:41:18.478Z,16.08
2023-11-15T06:43:46.047Z,17.17
2023-11-15T06:46:19.211Z,16.33
2023-11-15T06:48:48.480Z,18.10
2023-11-15T06:51:16.941Z,17.10
2023-11-15T06:53:47.271Z,18.40
2023-11-15T06:56:15.059Z,16.02
2023-11-15T06:58:42.963Z,19.50
2023-11-15T07:01:10.688Z,16.25
2023-11-15T07:03:39.007Z,16.73
2023-11-15T07:06:07.321Z,17.27
2023-11-15T07:08:34.965Z,15.43
2023-11-15T07:11:02.589Z,16.33
2023-11-15T07:13:32.490Z,15.93
2023-11-15T07:16:03.179Z,15.57
2023-11-15T07:18:31.239Z,16.83
2023-11-15T07:20:58.964Z,16.35
2023-11-15T07:23:27.831Z,15.77
2023-11-15T07:25:55.823Z,16.73
2023-11-15T07:28:24.731Z,14.63
2023-11-15T07:30:52.756Z,18.70
2023-11-15T07:33:23.304Z,14.27
2023-11-15T07:35:51.299Z,17.10
2023-11-15T07:38:19.689Z,26.52
2023-11-15T07:40:48.982Z,16.38
2023-11-15T07:43:16.770Z,16.48
2023-11-15T07:45:44.715Z,34.83
2023-11-15T07:48:12.496Z,17.15
2023-11-15T07:50:40.201Z,13.65
2023-11-15T07:53:08.266Z,14.80
2023-11-15T07:55:36.988Z,14.63
2023-11-15T07:58:05.884Z,14.50
2023-11-15T08:00:36.821Z,21.40
2023-11-15T08:03:05.907Z,21.50
2023-11-15T08:05:33.928Z,15.23
2023-11-15T08:08:01.583Z,16.48
2023-11-15T08:10:32.376Z,15.98
2023-11-15T08:13:00.055Z,15.50
2023-11-15T08:15:27.774Z,16.58
2023-11-15T08:17:55.916Z,13.63
2023-11-15T08:20:23.595Z,15.32
2023-11-15T08:22:53.107Z,16.77
2023-11-15T08:25:22.218Z,15.30
2023-11-15T08:27:49.789Z,18.25
2023-11-15T08:30:20.486Z,18.55
2023-11-15T08:32:49.823Z,62.85
2023-11-15T08:35:18.746Z,17.08
2023-11-15T08:37:46.453Z,20.98
2023-11-15T08:40:23.217Z,23.02
2023-11-15T08:42:56.783Z,16.98
2023-11-15T08:45:25.210Z,21.50
2023-11-15T08:47:53.302Z,16.30
2023-11-15T08:50:23.359Z,18.60
2023-11-15T08:52:51.265Z,14.57
2023-11-15T08:55:21.030Z,18.88
2023-11-15T08:57:48.732Z,17.20
2023-11-15T09:00:17.534Z,18.67
2023-11-15T09:02:47.724Z,20.38
2023-11-15T09:05:17.228Z,15.88
2023-11-15T09:07:45.659Z,22.70
2023-11-15T09:10:15.298Z,22.88
2023-11-15T09:12:46.263Z,16.17
2023-11-15T09:15:15.234Z,15.25
2023-11-15T09:17:50.184Z,14.75
2023-11-15T09:20:20.980Z,15.77
2023-11-15T09:22:55.193Z,15.70
2023-11-15T09:25:25.258Z,18.25
2023-11-15T09:27:57.189Z,20.67
2023-11-15T09:30:26.739Z,17.25
2023-11-15T09:32:56.170Z,19.73
2023-11-15T09:35:29.592Z,19.25
2023-11-15T09:38:00.794Z,15.70
2023-11-15T09:40:29.012Z,18.45
2023-11-15T09:43:00.127Z,15.07
2023-11-15T09:45:28.043Z,27.23
2023-11-15T09:47:58.142Z,25.40
2023-11-15T09:50:28.082Z,20.27
2023-11-15T09:52:56.911Z,25.38
2023-11-15T09:55:25.410Z,16.27
2023-11-15T09:57:54.534Z,15.40
2023-11-15T10:00:23.667Z,15.55
2023-11-15T10:02:54.263Z,19.48
2023-11-15T10:05:25.440Z,17.70
2023-11-15T10:07:55.517Z,16.98
2023-11-15T10:10:24.000Z,19.42
2023-11-15T10:12:54.392Z,18.77
2023-11-15T10:15:31.280Z,18.35
2023-11-15T10:17:58.949Z,14.10
2023-11-15T10:20:29.909Z,17.48
2023-11-15T10:22:58.670Z,26.70
2023-11-15T10:25:29.267Z,23.33
2023-11-15T10:28:02.053Z,21.85
2023-11-15T10:30:29.818Z,23.77
2023-11-15T10:33:15.435Z,19.48
2023-11-15T10:35:46.194Z,20.98
2023-11-15T10:38:20.489Z,21.23
2023-11-15T10:40:48.196Z,20.88
2023-11-15T10:43:17.371Z,20.80
2023-11-15T10:45:45.309Z,23.63
2023-11-15T10:48:13.877Z,23.92
2023-11-15T10:50:46.441Z,25.75
2023-11-15T10:53:14.329Z,21.50
2023-11-15T10:55:42.242Z,25.75
2023-11-15T10:58:12.900Z,23.75
2023-11-15T11:00:44.207Z,24.48
2023-11-15T11:03:15.084Z,27.45
2023-11-15T11:05:48.195Z,23.55
2023-11-15T11:08:15.904Z,28.30
2023-11-15T11:10:49.719Z,22.90
2023-11-15T11:13:23.231Z,24.98
2023-11-15T11:15:51.274Z,22.80
2023-11-15T11:18:19.766Z,23.85
2023-11-15T11:21:03.796Z,23.90
2023-11-15T11:23:35.581Z,23.48
2023-11-15T11:26:43.100Z,21.80
2023-11-15T11:29:11.510Z,27.52
2023-11-15T11:31:39.118Z,29.05
2023-11-15T11:34:10.612Z,23.52
2023-11-15T11:36:51.552Z,24.52
2023-11-15T11:39:25.405Z,25.73
2023-11-15T11:41:55.998Z,25.25
2023-11-15T11:44:26.583Z,26.63
2023-11-15T11:47:02.917Z,22.10
2023-11-15T11:49:46.626Z,24.98
2023-11-15T11:52:16.228Z,26.17
2023-11-15T11:54:44.095Z,30.73
2023-11-15T11:57:11.742Z,23.50
2023-11-15T11:59:39.395Z,28.20
2023-11-15T12:02:07.865Z,32.78
2023-11-15T12:04:45.321Z,27.13
2023-11-15T12:07:13.164Z,32.92
2023-11-15T12:09:42.814Z,30.83
2023-11-15T12:12:11.505Z,27.73
2023-11-15T12:14:47.622Z,33.78
2023-11-15T12:17:15.432Z,28.58
2023-11-15T12:19:44.112Z,31.80
2023-11-15T12:22:12.598Z,33.05
2023-11-15T12:24:42.342Z,30.40
2023-11-15T12:27:10.373Z,34.45
2023-11-15T12:29:38.202Z,30.75
2023-11-15T12:32:06.571Z,28.63
2023-11-15T12:34:34.317Z,30.10
2023-11-15T12:37:01.973Z,29.70
2023-11-15T12:39:47.687Z,31.88
2023-11-15T12:42:15.635Z,30.25
2023-11-15T12:44:45.577Z,32.67
2023-11-15T12:47:14.508Z,29.75
2023-11-15T12:49:42.192Z,31.10
2023-11-15T12:52:10.795Z,36.38
2023-11-15T12:54:53.957Z,33.63
2023-11-15T12:59:52.158Z,32.10
2023-11-15T13:02:29.154Z,31.85
2023-11-15T13:04:57.692Z,31.45
2023-11-15T13:07:25.258Z,32.88
2023-11-15T13:09:52.851Z,31.27
2023-11-15T13:12:24.509Z,30.90
2023-11-15T13:14:53.056Z,32.40
2023-11-15T13:17:20.881Z,34.88
2023-11-15T13:19:48.587Z,34.15
2023-11-15T13:22:17.234Z,32.65
2023-11-15T13:24:50.114Z,33.63
2023-11-15T13:27:19.323Z,34.50
2023-11-15T13:29:47.158Z,28.27
2023-11-15T13:32:15.855Z,25.98
2023-11-15T13:34:46.754Z,28.67
2023-11-15T13:37:14.620Z,31.55
2023-11-15T13:39:42.242Z,31.67
2023-11-15T13:42:10.284Z,32.58
2023-11-15T13:44:38.398Z,33.35
2023-11-15T13:47:08.214Z,30.20
2023-11-15T13:49:35.829Z,28.33
2023-11-15T13:52:03.580Z,32.67
2023-11-15T13:54:31.982Z,31.58
2023-11-15T13:56:59.774Z,34.78
2023-11-15T13:59:29.686Z,36.03
2023-11-15T14:01:57.415Z,40.90
2023-11-15T14:04:25.688Z,36.03
2023-11-15T14:06:54.492Z,33.67
2023-11-15T14:09:22.621Z,38.78
2023-11-15T14:11:51.290Z,32.78
2023-11-15T14:14:19.153Z,35.95
2023-11-15T14:16:48.746Z,35.30
2023-11-15T14:19:16.987Z,36.03
2023-11-15T14:21:45.751Z,35.28
2023-11-15T14:24:13.534Z,35.75
2023-11-15T14:26:42.431Z,35.05
2023-11-15T14:29:10.119Z,34.00
2023-11-15T14:31:41.260Z,31.65
2023-11-15T14:34:09.259Z,39.17
2023-11-15T14:36:38.677Z,37.88
2023-11-15T14:39:10.942Z,35.75
2023-11-15T14:41:38.943Z,31.27
2023-11-15T14:44:06.760Z,28.88
2023-11-15T14:46:34.873Z,32.15
2023-11-15T14:49:02.931Z,32.35
2023-11-15T14:51:30.726Z,35.25
2023-11-15T14:54:00.246Z,31.30
2023-11-15T14:56:29.697Z,36.50
2023-11-15T14:59:00.043Z,34.33
2023-11-15T15:01:28.694Z,36.42
2023-11-15T15:03:57.029Z,32.55
2023-11-15T15:06:25.836Z,31.73
2023-11-15T15:08:53.640Z,30.48
2023-11-15T15:11:21.261Z,28.23
2023-11-15T15:13:48.968Z,31.88
2023-11-15T15:16:18.105Z,44.53
2023-11-15T15:18:45.960Z,35.67
2023-11-15T15:21:16.203Z,32.42
2023-11-15T15:23:43.934Z,37.03
2023-11-15T15:26:15.720Z,31.10
2023-11-15T15:28:43.504Z,28.27
2023-11-15T15:31:11.800Z,33.83
2023-11-15T15:33:39.699Z,30.27
2023-11-15T15:36:07.640Z,32.20
2023-11-15T15:38:35.905Z,35.25
2023-11-15T15:41:04.462Z,37.05
2023-11-15T15:43:32.627Z,31.48
2023-11-15T15:46:00.463Z,32.85
2023-11-15T15:48:28.439Z,36.47
2023-11-15T15:50:56.280Z,36.63
2023-11-15T15:53:24.078Z,31.92
2023-11-15T15:55:53.010Z,34.08
2023-11-15T15:58:21.793Z,34.50
2023-11-15T16:00:49.713Z,39.65
2023-11-15T16:03:18.441Z,32.47
2023-11-15T16:05:46.116Z,32.55
2023-11-15T16:08:14.176Z,28.42
2023-11-15T16:10:42.418Z,31.25
2023-11-15T16:13:11.037Z,31.13
2023-11-15T16:15:41.733Z,29.73
2023-11-15T16:18:11.594Z,30.90
2023-11-15T16:20:40.181Z,33.30
2023-11-15T16:23:07.821Z,31.05
2023-11-15T16:25:35.544Z,30.95
2023-11-15T16:28:03.693Z,27.42
2023-11-15T16:30:32.844Z,23.98
2023-11-15T16:33:01.161Z,24.38
2023-11-15T16:35:30.371Z,28.65
2023-11-15T16:37:58.260Z,23.65
2023-11-15T16:40:25.871Z,23.48
2023-11-15T16:42:53.623Z,24.83
2023-11-15T16:45:22.264Z,32.55
2023-11-15T16:47:51.253Z,22.63
2023-11-15T16:50:18.954Z,25.88
2023-11-15T16:52:46.639Z,23.77
2023-11-15T16:55:14.347Z,25.63
2023-11-15T16:57:42.271Z,24.17
2023-11-15T17:00:10.520Z,26.98
2023-11-15T17:02:38.980Z,24.75
2023-11-15T17:05:07.236Z,25.25
2023-11-15T17:07:34.991Z,23.75
2023-11-15T17:10:03.163Z,25.67
2023-11-15T17:12:33.961Z,26.25
2023-11-15T17:15:01.687Z,23.35
2023-11-15T17:17:30.551Z,23.52
2023-11-15T17:19:58.649Z,21.95
2023-11-15T17:22:27.908Z,22.38
2023-11-15T17:24:55.767Z,24.30
2023-11-15T17:27:25.844Z,41.63
2023-11-15T17:29:53.876Z,42.72
2023-11-15T17:32:21.751Z,60.90
2023-11-15T17:34:49.404Z,148.45
2023-11-15T17:37:17.417Z,212.43
2023-11-15T17:39:45.114Z,214.88
2023-11-15T17:42:15.048Z,147.50
2023-11-15T17:44:42.715Z,93.97
2023-11-15T17:47:13.292Z,55.78
2023-11-15T17:49:41.023Z,38.53
2023-11-15T17:52:11.305Z,43.83
2023-11-15T17:54:40.259Z,40.58
2023-11-15T17:57:08.144Z,35.17
2023-11-15T17:59:35.823Z,31.00
2023-11-15T18:02:05.512Z,48.72
2023-11-15T18:04:33.431Z,36.20
2023-11-15T18:07:01.742Z,32.10
2023-11-15T18:09:29.917Z,26.55
2023-11-15T18:11:58.918Z,23.17
2023-11-15T18:14:27.398Z,23.05
2023-11-15T18:16:55.587Z,22.67
2023-11-15T18:19:23.276Z,23.42
2023-11-15T18:21:52.014Z,22.23
2023-11-15T18:24:20.164Z,20.90
2023-11-15T18:26:48.944Z,26.52
2023-11-15T18:29:17.385Z,28.92
2023-11-15T18:31:45.086Z,30.08
2023-11-15T18:34:12.951Z,25.33
2023-11-15T18:36:44.412Z,24.65
2023-11-15T18:39:16.238Z,22.77
2023-11-15T18:41:45.701Z,24.35
2023-11-15T18:44:17.374Z,23.50
2023-11-15T18:46:49.862Z,25.88
2023-11-15T18:49:19.037Z,26.05
2023-11-15T18:51:48.971Z,21.50
2023-11-15T18:54:17.650Z,23.08
2023-11-15T18:56:45.341Z,24.10
2023-11-15T18:59:13.095Z,22.30
2023-11-15T19:01:43.764Z,25.02
2023-11-15T19:04:11.691Z,23.33
2023-11-15T19:06:39.478Z,22.63
2023-11-15T19:09:08.988Z,20.25
2023-11-15T19:11:36.974Z,22.58
2023-11-15T19:14:06.614Z,23.05
2023-11-15T19:16:34.436Z,24.90
2023-11-15T19:19:03.583Z,26.77
2023-11-15T19:21:31.281Z,27.15
2023-11-15T19:24:01.519Z,23.35
2023-11-15T19:26:32.287Z,23.95
2023-11-15T19:29:00.062Z,27.65
2023-11-15T19:31:27.714Z,23.75
2023-11-15T19:33:55.759Z,23.25
2023-11-15T19:36:23.657Z,25.23
2023-11-15T19:38:51.422Z,23.25
2023-11-15T19:41:22.052Z,26.20
2023-11-15T19:43:49.937Z,25.15
2023-11-15T19:46:20.859Z,24.10
2023-11-15T19:48:48.796Z,27.60
2023-11-15T19:51:37.038Z,27.25
2023-11-15T19:54:09.683Z,23.08
2023-11-15T19:56:37.391Z,26.05
2023-11-15T19:59:05.329Z,21.60
2023-11-15T20:01:33.193Z,26.73
2023-11-15T20:04:04.803Z,28.58
2023-11-15T20:06:33.010Z,24.50
2023-11-15T20:09:00.765Z,23.70
2023-11-15T20:11:28.598Z,23.20
2023-11-15T20:13:56.413Z,26.25
2023-11-15T20:16:25.647Z,27.30
2023-11-15T20:18:53.812Z,25.25
2023-11-15T20:21:21.723Z,24.55
2023-11-15T20:23:50.006Z,20.63
2023-11-15T20:26:18.881Z,26.95
2023-11-15T20:28:47.165Z,23.13
2023-11-15T20:31:14.800Z,24.30
2023-11-15T20:33:42.982Z,21.08
2023-11-15T20:36:11.927Z,21.20
2023-11-15T20:38:39.757Z,22.33
2023-11-15T20:41:08.766Z,20.08
2023-11-15T20:43:37.314Z,20.40
2023-11-15T20:46:17.705Z,21.63
2023-11-15T20:48:47.983Z,18.63
2023-11-15T20:51:16.325Z,20.45
2023-11-15T20:53:45.079Z,24.88
2023-11-15T20:56:12.848Z,24.45
2023-11-15T20:58:41.656Z,24.08
2023-11-15T21:01:10.288Z,22.95
2023-11-15T21:03:38.594Z,21.60
2023-11-15T21:06:06.965Z,25.98
2023-11-15T21:08:36.432Z,23.35
2023-11-15T21:11:04.801Z,19.55
2023-11-15T21:13:32.388Z,19.83
2023-11-15T21:16:00.108Z,23.83
2023-11-15T21:18:27.800Z,21.90
2023-11-15T21:20:55.454Z,26.48
2023-11-15T21:23:23.066Z,25.08
2023-11-15T21:25:50.729Z,24.63
2023-11-15T21:28:18.275Z,20.77
2023-11-15T21:30:45.935Z,22.60
2023-11-15T21:33:13.612Z,28.02
2023-11-15T21:35:41.463Z,24.23
2023-11-15T21:38:10.726Z,24.17
2023-11-15T21:40:38.362Z,26.75
2023-11-15T21:43:06.646Z,22.63
2023-11-15T21:45:34.215Z,23.83
2023-11-15T21:48:01.932Z,24.45
2023-11-15T21:50:29.601Z,23.42
2023-11-15T21:52:58.075Z,21.70
2023-11-15T21:55:25.670Z,22.75
2023-11-15T21:57:53.752Z,23.48
2023-11-15T22:00:26.807Z,22.90
2023-11-15T22:02:54.883Z,24.73
2023-11-15T22:05:22.996Z,22.65
2023-11-15T22:07:50.870Z,25.67
2023-11-15T22:10:18.823Z,23.23
2023-11-15T22:12:49.771Z,22.33
2023-11-15T22:15:20.841Z,22.38
2023-11-15T22:17:51.894Z,24.55
2023-11-15T22:20:20.260Z,25.55
2023-11-15T22:22:48.161Z,23.48
2023-11-15T22:25:15.840Z,23.98
2023-11-15T22:27:43.409Z,22.20
2023-11-15T22:30:11.538Z,26.35
2023-11-15T22:32:39.753Z,23.10
2023-11-15T22:35:08.355Z,23.05
2023-11-15T22:37:35.945Z,21.88
2023-11-15T22:40:03.617Z,21.52
2023-11-15T22:42:33.423Z,21.42
2023-11-15T22:45:01.199Z,23.13
2023-11-15T22:47:28.877Z,22.38
2023-11-15T22:49:56.768Z,21.52
2023-11-15T22:52:24.432Z,22.38
2023-11-15T22:54:52.293Z,20.67
2023-11-15T22:57:20.009Z,21.27
2023-11-15T22:59:50.366Z,20.92
2023-11-15T23:02:19.579Z,23.63
2023-11-15T23:04:47.439Z,22.50
2023-11-15T23:07:15.293Z,21.27
2023-11-15T23:09:43.146Z,23.95
2023-11-15T23:12:12.870Z,24.38
2023-11-15T23:14:41.723Z,20.98
2023-11-15T23:17:09.513Z,23.73
2023-11-15T23:19:37.483Z,21.40
2023-11-15T23:22:07.091Z,25.25
2023-11-15T23:24:35.535Z,26.88
2023-11-15T23:27:03.267Z,22.50
2023-11-15T23:29:30.939Z,24.92
2023-11-15T23:31:58.886Z,22.65
2023-11-15T23:34:26.627Z,24.70
2023-11-15T23:36:55.366Z,22.33
2023-11-15T23:39:24.390Z,19.67
2023-11-15T23:41:52.511Z,23.40
2023-11-15T23:44:20.308Z,23.73
2023-11-15T23:46:51.705Z,21.33
2023-11-15T23:49:20.575Z,20.85
2023-11-15T23:51:48.529Z,18.80
2023-11-15T23:54:16.200Z,21.02
2023-11-15T23:56:44.140Z,24.27
2023-11-15T23:59:11.847Z,22.23
